sensor_id;sensor_type;location;lat;lon;timestamp;pressure;altitude;pressure_sealevel;temperature;humidity
22647;BME280;11490;42.726;23.268;2023-03-14T00:01:49;95455.81;;;3.05;80.31
22647;BME280;11490;42.726;23.268;2023-03-14T00:04:15;95445.00;;;3.15;81.39
22647;BME280;11490;42.726;23.268;2023-03-14T00:06:40;95442.09;;;3.10;80.84
22647;BME280;11490;42.726;23.268;2023-03-14T00:09:06;95446.63;;;3.16;80.73
22647;BME280;11490;42.726;23.268;2023-03-14T00:11:32;95434.16;;;2.89;80.77
22647;BME280;11490;42.726;23.268;2023-03-14T00:13:57;95436.31;;;3.00;80.91
22647;BME280;11490;42.726;23.268;2023-03-14T00:16:23;95433.03;;;2.98;80.00
22647;BME280;11490;42.726;23.268;2023-03-14T00:18:48;95436.53;;;3.20;79.95
22647;BME280;11490;42.726;23.268;2023-03-14T00:21:13;95428.31;;;3.08;79.90
22647;BME280;11490;42.726;23.268;2023-03-14T00:23:41;95435.22;;;3.09;80.08
22647;BME280;11490;42.726;23.268;2023-03-14T00:26:09;95433.19;;;3.11;80.33
22647;BME280;11490;42.726;23.268;2023-03-14T00:28:35;95422.16;;;3.01;80.26
22647;BME280;11490;42.726;23.268;2023-03-14T00:31:08;95416.94;;;3.07;80.33
22647;BME280;11490;42.726;23.268;2023-03-14T00:33:34;95421.09;;;3.17;79.45
22647;BME280;11490;42.726;23.268;2023-03-14T00:36:03;95422.63;;;3.11;78.57
22647;BME280;11490;42.726;23.268;2023-03-14T00:38:32;95397.47;;;2.72;79.87
22647;BME280;11490;42.726;23.268;2023-03-14T00:40:57;95409.22;;;3.06;78.90
22647;BME280;11490;42.726;23.268;2023-03-14T00:43:23;95408.53;;;3.19;78.56
22647;BME280;11490;42.726;23.268;2023-03-14T00:45:52;95396.78;;;3.00;78.29
22647;BME280;11490;42.726;23.268;2023-03-14T00:48:18;95415.81;;;2.81;80.66
22647;BME280;11490;42.726;23.268;2023-03-14T00:50:45;95358.69;;;2.45;79.95
22647;BME280;11490;42.726;23.268;2023-03-14T00:53:11;95406.91;;;2.82;80.44
22647;BME280;11490;42.726;23.268;2023-03-14T00:55:40;95409.13;;;2.63;83.08
22647;BME280;11490;42.726;23.268;2023-03-14T00:58:07;95395.75;;;2.80;80.29
22647;BME280;11490;42.726;23.268;2023-03-14T01:00:33;95391.50;;;2.79;79.00
22647;BME280;11490;42.726;23.268;2023-03-14T01:02:58;95387.13;;;2.86;81.12
22647;BME280;11490;42.726;23.268;2023-03-14T01:05:24;95397.25;;;2.89;79.52
22647;BME280;11490;42.726;23.268;2023-03-14T01:07:50;95401.69;;;3.03;78.36
22647;BME280;11490;42.726;23.268;2023-03-14T01:10:15;95383.22;;;3.03;77.61
22647;BME280;11490;42.726;23.268;2023-03-14T01:12:41;95388.72;;;2.87;80.50
22647;BME280;11490;42.726;23.268;2023-03-14T01:15:07;95388.44;;;2.60;81.57
22647;BME280;11490;42.726;23.268;2023-03-14T01:17:32;95356.44;;;2.78;79.80
22647;BME280;11490;42.726;23.268;2023-03-14T01:19:59;95392.59;;;2.69;81.42
22647;BME280;11490;42.726;23.268;2023-03-14T01:22:25;95329.38;;;2.33;82.37
22647;BME280;11490;42.726;23.268;2023-03-14T01:24:50;95374.78;;;2.71;80.01
22647;BME280;11490;42.726;23.268;2023-03-14T01:27:16;95380.56;;;2.82;78.91
22647;BME280;11490;42.726;23.268;2023-03-14T01:29:41;95372.81;;;2.95;78.02
22647;BME280;11490;42.726;23.268;2023-03-14T01:32:06;95364.03;;;2.88;78.98
22647;BME280;11490;42.726;23.268;2023-03-14T01:34:32;95355.38;;;2.58;79.67
22647;BME280;11490;42.726;23.268;2023-03-14T01:36:57;95354.63;;;2.79;78.62
22647;BME280;11490;42.726;23.268;2023-03-14T01:39:23;95369.69;;;2.85;78.51
22647;BME280;11490;42.726;23.268;2023-03-14T01:41:48;95365.00;;;2.65;79.19
22647;BME280;11490;42.726;23.268;2023-03-14T01:44:13;95344.81;;;2.22;80.72
22647;BME280;11490;42.726;23.268;2023-03-14T01:46:40;95357.41;;;2.41;82.33
22647;BME280;11490;42.726;23.268;2023-03-14T01:49:26;95353.63;;;2.29;84.40
22647;BME280;11490;42.726;23.268;2023-03-14T01:51:54;95348.78;;;2.32;85.17
22647;BME280;11490;42.726;23.268;2023-03-14T01:54:25;95337.34;;;2.40;83.71
22647;BME280;11490;42.726;23.268;2023-03-14T01:56:57;95337.63;;;2.45;80.48
22647;BME280;11490;42.726;23.268;2023-03-14T01:59:29;95326.81;;;2.40;79.82
22647;BME280;11490;42.726;23.268;2023-03-14T02:01:55;95331.03;;;2.20;81.05
22647;BME280;11490;42.726;23.268;2023-03-14T02:04:21;95331.91;;;2.27;83.89
22647;BME280;11490;42.726;23.268;2023-03-14T02:06:55;95335.28;;;2.21;82.20
22647;BME280;11490;42.726;23.268;2023-03-14T02:09:22;95346.78;;;2.35;84.36
22647;BME280;11490;42.726;23.268;2023-03-14T02:11:49;95346.41;;;2.52;81.61
22647;BME280;11490;42.726;23.268;2023-03-14T02:14:28;95341.41;;;2.57;80.23
22647;BME280;11490;42.726;23.268;2023-03-14T02:16:55;95340.72;;;2.34;81.31
22647;BME280;11490;42.726;23.268;2023-03-14T02:19:26;95341.25;;;2.44;82.65
22647;BME280;11490;42.726;23.268;2023-03-14T02:22:05;95328.22;;;2.07;81.57
22647;BME280;11490;42.726;23.268;2023-03-14T02:27:18;95336.03;;;2.15;83.65
22647;BME280;11490;42.726;23.268;2023-03-14T02:29:48;95343.94;;;2.15;81.39
22647;BME280;11490;42.726;23.268;2023-03-14T02:32:16;95333.31;;;1.93;83.34
22647;BME280;11490;42.726;23.268;2023-03-14T02:34:44;95340.00;;;2.11;83.61
22647;BME280;11490;42.726;23.268;2023-03-14T02:37:12;95332.22;;;1.73;82.99
22647;BME280;11490;42.726;23.268;2023-03-14T02:39:43;95332.22;;;1.73;85.51
22647;BME280;11490;42.726;23.268;2023-03-14T02:42:09;95342.22;;;1.92;85.02
22647;BME280;11490;42.726;23.268;2023-03-14T02:44:35;95330.78;;;1.85;83.73
22647;BME280;11490;42.726;23.268;2023-03-14T02:47:03;95339.91;;;2.19;82.56
22647;BME280;11490;42.726;23.268;2023-03-14T02:49:30;95336.94;;;2.22;81.04
22647;BME280;11490;42.726;23.268;2023-03-14T02:51:57;95320.69;;;2.18;81.27
22647;BME280;11490;42.726;23.268;2023-03-14T02:54:23;95321.69;;;2.03;80.44
22647;BME280;11490;42.726;23.268;2023-03-14T02:56:48;95332.13;;;2.11;80.71
22647;BME280;11490;42.726;23.268;2023-03-14T02:59:13;95340.47;;;2.14;81.90
22647;BME280;11490;42.726;23.268;2023-03-14T03:01:39;95353.53;;;2.22;80.14
22647;BME280;11490;42.726;23.268;2023-03-14T03:04:04;95342.72;;;2.17;80.26
22647;BME280;11490;42.726;23.268;2023-03-14T03:06:30;95349.19;;;2.00;83.11
22647;BME280;11490;42.726;23.268;2023-03-14T03:08:55;95331.03;;;2.05;81.24
22647;BME280;11490;42.726;23.268;2023-03-14T03:11:21;95349.69;;;2.25;80.41
22647;BME280;11490;42.726;23.268;2023-03-14T03:13:46;95341.09;;;2.31;79.68
22647;BME280;11490;42.726;23.268;2023-03-14T03:16:12;95337.25;;;2.33;78.43
22647;BME280;11490;42.726;23.268;2023-03-14T03:18:38;95348.72;;;2.26;77.58
22647;BME280;11490;42.726;23.268;2023-03-14T03:21:04;95340.00;;;1.81;80.33
22647;BME280;11490;42.726;23.268;2023-03-14T03:23:31;95332.22;;;1.73;82.43
22647;BME280;11490;42.726;23.268;2023-03-14T03:25:56;95347.47;;;1.92;81.92
22647;BME280;11490;42.726;23.268;2023-03-14T03:28:21;95342.38;;;2.06;80.58
22647;BME280;11490;42.726;23.268;2023-03-14T03:30:47;95335.56;;;1.97;82.38
22647;BME280;11490;42.726;23.268;2023-03-14T03:33:13;95340.91;;;2.18;81.56
22647;BME280;11490;42.726;23.268;2023-03-14T03:35:46;95307.09;;;2.00;79.92
22647;BME280;11490;42.726;23.268;2023-03-14T03:38:12;95335.47;;;2.05;82.54
22647;BME280;11490;42.726;23.268;2023-03-14T03:40:38;95338.56;;;2.23;80.27
22647;BME280;11490;42.726;23.268;2023-03-14T03:43:03;95338.81;;;2.28;78.77
22647;BME280;11490;42.726;23.268;2023-03-14T03:45:29;95338.19;;;2.26;78.18
22647;BME280;11490;42.726;23.268;2023-03-14T03:47:55;95344.09;;;2.13;78.74
22647;BME280;11490;42.726;23.268;2023-03-14T03:50:20;95341.66;;;2.12;78.58
22647;BME280;11490;42.726;23.268;2023-03-14T03:52:45;95334.19;;;1.57;80.98
22647;BME280;11490;42.726;23.268;2023-03-14T03:55:11;95340.63;;;1.54;82.94
22647;BME280;11490;42.726;23.268;2023-03-14T03:57:36;95334.75;;;1.81;80.87
22647;BME280;11490;42.726;23.268;2023-03-14T04:00:03;95352.34;;;1.96;81.54
22647;BME280;11490;42.726;23.268;2023-03-14T04:02:30;95349.53;;;2.12;79.09
22647;BME280;11490;42.726;23.268;2023-03-14T04:04:55;95313.31;;;1.55;82.35
22647;BME280;11490;42.726;23.268;2023-03-14T04:07:21;95350.00;;;2.01;80.00
22647;BME280;11490;42.726;23.268;2023-03-14T04:09:46;95339.66;;;1.84;79.25
22647;BME280;11490;42.726;23.268;2023-03-14T04:12:11;95352.72;;;1.92;79.77
22647;BME280;11490;42.726;23.268;2023-03-14T04:14:37;95338.63;;;1.71;80.76
22647;BME280;11490;42.726;23.268;2023-03-14T04:17:03;95336.56;;;1.66;83.47
22647;BME280;11490;42.726;23.268;2023-03-14T04:19:28;95335.66;;;1.88;80.79
22647;BME280;11490;42.726;23.268;2023-03-14T04:21:53;95332.59;;;2.00;79.74
22647;BME280;11490;42.726;23.268;2023-03-14T04:24:19;95323.72;;;2.01;79.07
22647;BME280;11490;42.726;23.268;2023-03-14T04:26:44;95325.22;;;2.10;79.64
22647;BME280;11490;42.726;23.268;2023-03-14T04:29:09;95304.19;;;1.80;78.13
22647;BME280;11490;42.726;23.268;2023-03-14T04:31:35;95297.84;;;1.75;81.35
22647;BME280;11490;42.726;23.268;2023-03-14T04:34:00;95318.16;;;1.81;79.34
22647;BME280;11490;42.726;23.268;2023-03-14T04:36:26;95317.34;;;1.80;82.51
22647;BME280;11490;42.726;23.268;2023-03-14T04:38:51;95298.09;;;1.94;79.79
22647;BME280;11490;42.726;23.268;2023-03-14T04:41:16;95288.75;;;1.63;82.21
22647;BME280;11490;42.726;23.268;2023-03-14T04:43:42;95293.41;;;1.61;83.89
22647;BME280;11490;42.726;23.268;2023-03-14T04:46:07;95297.75;;;1.53;83.19
22647;BME280;11490;42.726;23.268;2023-03-14T04:48:32;95307.56;;;1.74;81.38
22647;BME280;11490;42.726;23.268;2023-03-14T04:50:58;95273.00;;;1.63;81.80
22647;BME280;11490;42.726;23.268;2023-03-14T04:53:23;95292.72;;;1.29;82.08
22647;BME280;11490;42.726;23.268;2023-03-14T04:55:51;95275.34;;;1.28;84.40
22647;BME280;11490;42.726;23.268;2023-03-14T04:58:17;95305.19;;;1.79;81.90
22647;BME280;11490;42.726;23.268;2023-03-14T05:00:43;95290.97;;;1.59;81.16
22647;BME280;11490;42.726;23.268;2023-03-14T05:03:08;95288.84;;;1.40;81.73
22647;BME280;11490;42.726;23.268;2023-03-14T05:05:33;95289.47;;;1.42;85.10
22647;BME280;11490;42.726;23.268;2023-03-14T05:07:59;95303.28;;;1.88;82.57
22647;BME280;11490;42.726;23.268;2023-03-14T05:10:24;95301.75;;;1.93;80.87
22647;BME280;11490;42.726;23.268;2023-03-14T05:12:50;95283.88;;;1.74;82.13
22647;BME280;11490;42.726;23.268;2023-03-14T05:15:16;95302.66;;;2.01;81.22
22647;BME280;11490;42.726;23.268;2023-03-14T05:17:41;95285.44;;;1.54;82.42
22647;BME280;11490;42.726;23.268;2023-03-14T05:20:07;95286.84;;;1.42;83.93
22647;BME280;11490;42.726;23.268;2023-03-14T05:22:34;95272.38;;;1.75;83.18
22647;BME280;11490;42.726;23.268;2023-03-14T05:24:59;95294.28;;;2.12;81.82
22647;BME280;11490;42.726;23.268;2023-03-14T05:27:25;95280.84;;;2.21;81.52
22647;BME280;11490;42.726;23.268;2023-03-14T05:29:50;95293.53;;;2.47;81.05
22647;BME280;11490;42.726;23.268;2023-03-14T05:32:15;95292.13;;;2.15;80.93
22647;BME280;11490;42.726;23.268;2023-03-14T05:34:41;95276.94;;;2.32;81.70
22647;BME280;11490;42.726;23.268;2023-03-14T05:37:06;95288.00;;;2.63;80.17
22647;BME280;11490;42.726;23.268;2023-03-14T05:39:32;95305.34;;;2.94;79.42
22647;BME280;11490;42.726;23.268;2023-03-14T05:41:57;95297.69;;;2.99;78.07
22647;BME280;11490;42.726;23.268;2023-03-14T05:44:23;95294.25;;;3.26;77.81
22647;BME280;11490;42.726;23.268;2023-03-14T05:46:48;95285.34;;;3.27;76.70
22647;BME280;11490;42.726;23.268;2023-03-14T05:49:14;95290.75;;;3.40;76.67
22647;BME280;11490;42.726;23.268;2023-03-14T05:51:39;95284.84;;;3.66;75.80
22647;BME280;11490;42.726;23.268;2023-03-14T05:54:04;95285.25;;;4.52;74.49
22647;BME280;11490;42.726;23.268;2023-03-14T05:56:30;95296.78;;;5.91;70.36
22647;BME280;11490;42.726;23.268;2023-03-14T05:58:55;95287.34;;;7.10;65.50
22647;BME280;11490;42.726;23.268;2023-03-14T06:01:21;95299.59;;;8.10;59.26
22647;BME280;11490;42.726;23.268;2023-03-14T06:03:46;95294.53;;;8.64;55.78
22647;BME280;11490;42.726;23.268;2023-03-14T06:06:11;95303.84;;;7.93;57.28
22647;BME280;11490;42.726;23.268;2023-03-14T06:08:37;95297.81;;;8.77;55.90
22647;BME280;11490;42.726;23.268;2023-03-14T06:11:03;95299.13;;;9.16;53.26
22647;BME280;11490;42.726;23.268;2023-03-14T06:13:28;95303.97;;;9.49;53.69
22647;BME280;11490;42.726;23.268;2023-03-14T06:15:54;95294.09;;;10.90;49.06
22647;BME280;11490;42.726;23.268;2023-03-14T06:18:19;95305.84;;;11.34;47.76
22647;BME280;11490;42.726;23.268;2023-03-14T06:20:45;95308.75;;;12.27;45.10
22647;BME280;11490;42.726;23.268;2023-03-14T06:23:10;95312.44;;;13.25;42.20
22647;BME280;11490;42.726;23.268;2023-03-14T06:25:36;95316.00;;;14.26;40.32
22647;BME280;11490;42.726;23.268;2023-03-14T06:28:01;95323.06;;;14.80;38.29
22647;BME280;11490;42.726;23.268;2023-03-14T06:30:27;95319.06;;;14.77;38.84
22647;BME280;11490;42.726;23.268;2023-03-14T06:32:53;95310.25;;;15.85;36.33
22647;BME280;11490;42.726;23.268;2023-03-14T06:35:18;95303.19;;;14.71;37.06
22647;BME280;11490;42.726;23.268;2023-03-14T06:37:43;95310.25;;;14.92;37.11
22647;BME280;11490;42.726;23.268;2023-03-14T06:40:11;95305.81;;;14.66;38.49
22647;BME280;11490;42.726;23.268;2023-03-14T06:42:46;95301.25;;;13.33;38.82
22647;BME280;11490;42.726;23.268;2023-03-14T06:45:12;95312.06;;;14.02;39.57
22647;BME280;11490;42.726;23.268;2023-03-14T06:47:37;95292.03;;;14.10;39.83
22647;BME280;11490;42.726;23.268;2023-03-14T06:50:07;95299.94;;;11.93;41.47
22647;BME280;11490;42.726;23.268;2023-03-14T06:52:32;95291.84;;;9.65;46.83
22647;BME280;11490;42.726;23.268;2023-03-14T06:54:58;95258.69;;;10.94;46.58
22647;BME280;11490;42.726;23.268;2023-03-14T06:57:24;95269.63;;;11.38;46.44
22647;BME280;11490;42.726;23.268;2023-03-14T06:59:49;95277.56;;;11.04;48.85
22647;BME280;11490;42.726;23.268;2023-03-14T07:02:14;95272.47;;;10.63;49.59
22647;BME280;11490;42.726;23.268;2023-03-14T07:04:40;95266.88;;;10.76;48.91
22647;BME280;11490;42.726;23.268;2023-03-14T07:07:05;95260.72;;;10.12;48.00
22647;BME280;11490;42.726;23.268;2023-03-14T07:09:32;95259.66;;;8.72;49.99
22647;BME280;11490;42.726;23.268;2023-03-14T07:11:57;95263.03;;;9.09;52.47
22647;BME280;11490;42.726;23.268;2023-03-14T07:14:23;95269.22;;;9.21;51.31
22647;BME280;11490;42.726;23.268;2023-03-14T07:16:48;95268.41;;;9.32;51.31
22647;BME280;11490;42.726;23.268;2023-03-14T07:19:14;95266.72;;;9.49;53.20
22647;BME280;11490;42.726;23.268;2023-03-14T07:21:39;95265.81;;;10.25;53.97
22647;BME280;11490;42.726;23.268;2023-03-14T07:24:05;95272.81;;;11.06;47.78
22647;BME280;11490;42.726;23.268;2023-03-14T07:26:30;95260.22;;;10.90;51.64
22647;BME280;11490;42.726;23.268;2023-03-14T07:28:56;95257.72;;;11.29;50.17
22647;BME280;11490;42.726;23.268;2023-03-14T07:31:21;95246.16;;;11.73;46.76
22647;BME280;11490;42.726;23.268;2023-03-14T07:33:47;95209.56;;;11.90;46.28
22647;BME280;11490;42.726;23.268;2023-03-14T07:36:12;95234.16;;;12.69;43.32
22647;BME280;11490;42.726;23.268;2023-03-14T07:38:37;95247.25;;;12.49;42.95
22647;BME280;11490;42.726;23.268;2023-03-14T07:41:04;95234.25;;;12.80;44.62
22647;BME280;11490;42.726;23.268;2023-03-14T07:43:31;95243.50;;;13.16;41.74
22647;BME280;11490;42.726;23.268;2023-03-14T07:45:56;95246.63;;;13.07;42.70
22647;BME280;11490;42.726;23.268;2023-03-14T07:48:22;95240.13;;;12.16;42.88
22647;BME280;11490;42.726;23.268;2023-03-14T07:50:51;95237.13;;;11.74;46.35
22647;BME280;11490;42.726;23.268;2023-03-14T07:53:18;95237.56;;;11.71;44.56
22647;BME280;11490;42.726;23.268;2023-03-14T07:55:44;95190.09;;;9.75;46.94
22647;BME280;11490;42.726;23.268;2023-03-14T07:58:12;95195.38;;;8.45;50.76
22647;BME280;11490;42.726;23.268;2023-03-14T08:00:38;95206.03;;;8.75;51.75
22647;BME280;11490;42.726;23.268;2023-03-14T08:03:03;95209.22;;;9.07;51.12
22647;BME280;11490;42.726;23.268;2023-03-14T08:05:35;95188.78;;;7.81;54.90
22647;BME280;11490;42.726;23.268;2023-03-14T08:08:01;95196.16;;;7.97;54.14
22647;BME280;11490;42.726;23.268;2023-03-14T08:10:26;95191.84;;;8.33;53.84
22647;BME280;11490;42.726;23.268;2023-03-14T08:12:55;95222.59;;;8.59;54.71
22647;BME280;11490;42.726;23.268;2023-03-14T08:15:21;95227.06;;;8.28;54.74
22647;BME280;11490;42.726;23.268;2023-03-14T08:18:19;95190.97;;;8.39;55.22
22647;BME280;11490;42.726;23.268;2023-03-14T08:20:44;95197.22;;;8.26;56.45
22647;BME280;11490;42.726;23.268;2023-03-14T08:23:10;95187.06;;;8.41;55.19
22647;BME280;11490;42.726;23.268;2023-03-14T08:25:35;95208.84;;;8.92;54.88
22647;BME280;11490;42.726;23.268;2023-03-14T08:28:02;95171.91;;;9.13;54.01
22647;BME280;11490;42.726;23.268;2023-03-14T08:30:29;95224.03;;;9.68;55.52
22647;BME280;11490;42.726;23.268;2023-03-14T08:32:56;95152.13;;;9.68;53.62
22647;BME280;11490;42.726;23.268;2023-03-14T08:35:23;95203.06;;;10.46;51.07
22647;BME280;11490;42.726;23.268;2023-03-14T08:37:49;95184.88;;;11.16;50.70
22647;BME280;11490;42.726;23.268;2023-03-14T08:40:14;95189.66;;;11.81;46.42
22647;BME280;11490;42.726;23.268;2023-03-14T08:42:42;95171.59;;;11.72;44.24
22647;BME280;11490;42.726;23.268;2023-03-14T08:45:08;95192.16;;;11.71;43.72
22647;BME280;11490;42.726;23.268;2023-03-14T08:47:33;95161.31;;;10.80;43.78
22647;BME280;11490;42.726;23.268;2023-03-14T08:49:59;95171.31;;;10.45;44.46
22647;BME280;11490;42.726;23.268;2023-03-14T08:52:24;95173.63;;;11.81;46.58
22647;BME280;11490;42.726;23.268;2023-03-14T08:54:50;95169.25;;;12.14;45.36
22647;BME280;11490;42.726;23.268;2023-03-14T08:57:16;95153.56;;;12.01;43.47
22647;BME280;11490;42.726;23.268;2023-03-14T08:59:46;95147.28;;;12.55;45.84
22647;BME280;11490;42.726;23.268;2023-03-14T09:02:12;95129.53;;;13.03;41.06
22647;BME280;11490;42.726;23.268;2023-03-14T09:04:37;95128.16;;;12.20;41.75
22647;BME280;11490;42.726;23.268;2023-03-14T09:07:03;95119.75;;;12.11;40.95
22647;BME280;11490;42.726;23.268;2023-03-14T09:09:28;95144.00;;;13.02;40.12
22647;BME280;11490;42.726;23.268;2023-03-14T09:11:55;95124.66;;;12.95;39.99
22647;BME280;11490;42.726;23.268;2023-03-14T09:14:23;95121.13;;;12.62;39.34
22647;BME280;11490;42.726;23.268;2023-03-14T09:16:49;95090.34;;;12.60;39.92
22647;BME280;11490;42.726;23.268;2023-03-14T09:19:14;95115.38;;;12.49;39.23
22647;BME280;11490;42.726;23.268;2023-03-14T09:21:39;95121.84;;;13.38;40.13
22647;BME280;11490;42.726;23.268;2023-03-14T09:24:05;95108.72;;;13.84;38.94
22647;BME280;11490;42.726;23.268;2023-03-14T09:26:34;95086.66;;;13.67;38.08
22647;BME280;11490;42.726;23.268;2023-03-14T09:29:02;95094.19;;;13.75;36.50
22647;BME280;11490;42.726;23.268;2023-03-14T09:31:27;95079.69;;;13.71;39.02
22647;BME280;11490;42.726;23.268;2023-03-14T09:34:02;95101.91;;;14.18;36.20
22647;BME280;11490;42.726;23.268;2023-03-14T09:36:27;95109.94;;;14.13;37.80
22647;BME280;11490;42.726;23.268;2023-03-14T09:38:52;95080.69;;;13.55;35.02
22647;BME280;11490;42.726;23.268;2023-03-14T09:41:25;95077.06;;;13.76;35.91
22647;BME280;11490;42.726;23.268;2023-03-14T09:46:28;95069.13;;;14.06;38.82
22647;BME280;11490;42.726;23.268;2023-03-14T09:48:54;95058.47;;;14.21;37.31
22647;BME280;11490;42.726;23.268;2023-03-14T09:51:20;95083.59;;;14.00;36.04
22647;BME280;11490;42.726;23.268;2023-03-14T09:53:49;95053.81;;;14.02;36.08
22647;BME280;11490;42.726;23.268;2023-03-14T09:56:25;95061.47;;;13.73;35.75
22647;BME280;11490;42.726;23.268;2023-03-14T09:59:03;95037.97;;;13.85;37.28
22647;BME280;11490;42.726;23.268;2023-03-14T10:01:32;95029.72;;;14.07;35.14
22647;BME280;11490;42.726;23.268;2023-03-14T10:04:02;95040.59;;;13.80;37.80
22647;BME280;11490;42.726;23.268;2023-03-14T10:06:30;95025.81;;;13.67;35.07
22647;BME280;11490;42.726;23.268;2023-03-14T10:08:56;95027.50;;;13.88;36.60
22647;BME280;11490;42.726;23.268;2023-03-14T10:11:23;95033.00;;;14.29;38.30
22647;BME280;11490;42.726;23.268;2023-03-14T10:14:10;95025.16;;;14.07;36.71
22647;BME280;11490;42.726;23.268;2023-03-14T10:16:43;94991.97;;;13.56;32.78
22647;BME280;11490;42.726;23.268;2023-03-14T10:19:17;95018.16;;;13.96;33.96
22647;BME280;11490;42.726;23.268;2023-03-14T10:21:53;94974.63;;;13.69;35.15
22647;BME280;11490;42.726;23.268;2023-03-14T10:24:26;94990.94;;;14.40;37.44
22647;BME280;11490;42.726;23.268;2023-03-14T10:26:59;94992.00;;;14.94;37.07
22647;BME280;11490;42.726;23.268;2023-03-14T10:29:30;94960.63;;;14.70;37.31
22647;BME280;11490;42.726;23.268;2023-03-14T10:32:06;94971.06;;;14.66;32.97
22647;BME280;11490;42.726;23.268;2023-03-14T10:34:36;94947.13;;;14.19;34.17
22647;BME280;11490;42.726;23.268;2023-03-14T10:42:26;94938.84;;;14.31;33.28
22647;BME280;11490;42.726;23.268;2023-03-14T10:45:21;94917.94;;;14.78;34.91
22647;BME280;11490;42.726;23.268;2023-03-14T10:47:50;94931.91;;;14.60;33.19
22647;BME280;11490;42.726;23.268;2023-03-14T10:50:30;94911.22;;;14.50;33.29
22647;BME280;11490;42.726;23.268;2023-03-14T10:52:56;94899.97;;;14.38;34.71
22647;BME280;11490;42.726;23.268;2023-03-14T10:55:24;94926.50;;;14.80;36.56
22647;BME280;11490;42.726;23.268;2023-03-14T10:57:51;94909.63;;;14.59;33.28
22647;BME280;11490;42.726;23.268;2023-03-14T11:00:22;94893.22;;;14.76;34.55
22647;BME280;11490;42.726;23.268;2023-03-14T11:05:36;94915.19;;;14.98;33.41
22647;BME280;11490;42.726;23.268;2023-03-14T11:11:02;94863.53;;;15.32;36.04
22647;BME280;11490;42.726;23.268;2023-03-14T11:14:38;94882.78;;;15.49;34.84
22647;BME280;11490;42.726;23.268;2023-03-14T11:20:17;94827.63;;;15.08;35.79
22647;BME280;11490;42.726;23.268;2023-03-14T11:27:41;94827.50;;;15.33;36.06
22647;BME280;11490;42.726;23.268;2023-03-14T11:30:25;94835.50;;;15.48;39.12
22647;BME280;11490;42.726;23.268;2023-03-14T11:33:15;94830.84;;;15.05;36.50
22647;BME280;11490;42.726;23.268;2023-03-14T11:35:53;94809.81;;;15.22;38.60
22647;BME280;11490;42.726;23.268;2023-03-14T11:41:30;94794.66;;;15.46;37.13
22647;BME280;11490;42.726;23.268;2023-03-14T11:44:01;94784.72;;;14.92;37.59
22647;BME280;11490;42.726;23.268;2023-03-14T11:46:36;94769.16;;;14.79;38.06
22647;BME280;11490;42.726;23.268;2023-03-14T11:49:27;94778.56;;;15.36;37.66
22647;BME280;11490;42.726;23.268;2023-03-14T11:54:53;94769.72;;;14.86;37.57
22647;BME280;11490;42.726;23.268;2023-03-14T11:57:22;94763.22;;;14.92;36.62
22647;BME280;11490;42.726;23.268;2023-03-14T12:08:11;94726.94;;;15.00;37.09
22647;BME280;11490;42.726;23.268;2023-03-14T12:10:56;94738.84;;;15.33;37.50
22647;BME280;11490;42.726;23.268;2023-03-14T12:13:28;94743.59;;;15.02;36.80
22647;BME280;11490;42.726;23.268;2023-03-14T12:15:57;94723.84;;;15.22;38.41
22647;BME280;11490;42.726;23.268;2023-03-14T12:18:50;94729.72;;;15.29;37.43
22647;BME280;11490;42.726;23.268;2023-03-14T12:21:16;94724.19;;;15.49;37.79
22647;BME280;11490;42.726;23.268;2023-03-14T12:23:45;94670.75;;;15.09;36.75
22647;BME280;11490;42.726;23.268;2023-03-14T12:26:18;94711.00;;;15.14;36.30
22647;BME280;11490;42.726;23.268;2023-03-14T12:42:22;94688.28;;;15.40;36.36
22647;BME280;11490;42.726;23.268;2023-03-14T12:45:22;94660.28;;;15.46;37.75
22647;BME280;11490;42.726;23.268;2023-03-14T12:50:43;94660.03;;;15.76;36.50
22647;BME280;11490;42.726;23.268;2023-03-14T12:59:01;94653.44;;;15.93;34.80
22647;BME280;11490;42.726;23.268;2023-03-14T13:01:32;94619.09;;;15.85;35.14
22647;BME280;11490;42.726;23.268;2023-03-14T13:04:12;94637.88;;;16.13;35.52
22647;BME280;11490;42.726;23.268;2023-03-14T13:06:57;94647.47;;;15.96;33.93
22647;BME280;11490;42.726;23.268;2023-03-14T13:12:10;94596.78;;;16.08;34.43
22647;BME280;11490;42.726;23.268;2023-03-14T13:14:41;94602.16;;;16.08;33.72
22647;BME280;11490;42.726;23.268;2023-03-14T13:17:12;94599.19;;;16.09;34.00
22647;BME280;11490;42.726;23.268;2023-03-14T13:19:38;94600.56;;;16.07;33.85
22647;BME280;11490;42.726;23.268;2023-03-14T13:22:15;94581.72;;;16.07;34.31
22647;BME280;11490;42.726;23.268;2023-03-14T13:24:42;94580.03;;;16.11;34.23
22647;BME280;11490;42.726;23.268;2023-03-14T13:27:17;94573.66;;;16.07;34.48
22647;BME280;11490;42.726;23.268;2023-03-14T13:29:44;94579.22;;;16.34;34.56
22647;BME280;11490;42.726;23.268;2023-03-14T13:32:19;94552.47;;;16.24;33.33
22647;BME280;11490;42.726;23.268;2023-03-14T13:34:45;94565.91;;;16.24;33.11
22647;BME280;11490;42.726;23.268;2023-03-14T13:37:22;94564.84;;;16.25;33.61
22647;BME280;11490;42.726;23.268;2023-03-14T13:39:52;94557.69;;;16.34;33.31
22647;BME280;11490;42.726;23.268;2023-03-14T13:42:21;94546.63;;;16.17;33.10
22647;BME280;11490;42.726;23.268;2023-03-14T13:44:47;94539.84;;;16.20;32.76
22647;BME280;11490;42.726;23.268;2023-03-14T13:47:18;94554.16;;;16.39;33.01
22647;BME280;11490;42.726;23.268;2023-03-14T13:49:45;94526.63;;;16.42;33.13
22647;BME280;11490;42.726;23.268;2023-03-14T13:52:35;94544.50;;;16.57;33.48
22647;BME280;11490;42.726;23.268;2023-03-14T13:55:02;94519.47;;;16.56;32.75
22647;BME280;11490;42.726;23.268;2023-03-14T13:57:45;94534.75;;;16.61;32.67
22647;BME280;11490;42.726;23.268;2023-03-14T14:00:19;94498.91;;;16.04;32.41
22647;BME280;11490;42.726;23.268;2023-03-14T14:02:45;94489.25;;;16.22;33.64
22647;BME280;11490;42.726;23.268;2023-03-14T14:05:12;94487.00;;;16.10;32.40